sensor_id;sensor_type;location;lat;lon;timestamp;pressure;altitude;pressure_sealevel;temperature;humidity
17950;BME280;9100;48.700;9.316;2023-03-19T00:00:53;97472;;;13.62;86.842
17950;BME280;9100;48.700;9.316;2023-03-19T00:01:53;97302.59999999999;;;12.51;86.934
17950;BME280;9100;48.700;9.316;2023-03-19T00:02:53;97472.79999999999;;;13.62;87.102
17950;BME280;9100;48.700;9.316;2023-03-19T00:03:24;97468.4;;;13.63;86.994
17950;BME280;9100;48.700;9.316;2023-03-19T00:03:54;97476.70000000001;;;13.65;87.104
17950;BME280;9100;48.700;9.316;2023-03-19T00:04:53;97468.2;;;13.64;87.276
17950;BME280;9100;48.700;9.316;2023-03-19T00:05:54;97474.2;;;13.65;87.395
17950;BME280;9100;48.700;9.316;2023-03-19T00:06:53;97471.6;;;13.65;87.565
17950;BME280;9100;48.700;9.316;2023-03-19T00:07:53;97470;;;13.64;87.596
17950;BME280;9100;48.700;9.316;2023-03-19T00:08:24;97477.70000000001;;;13.64;87.553
17950;BME280;9100;48.700;9.316;2023-03-19T00:08:53;97470.8;;;13.64;87.641
17950;BME280;9100;48.700;9.316;2023-03-19T00:09:53;97471.8;;;13.63;87.915
17950;BME280;9100;48.700;9.316;2023-03-19T00:10:53;97469.2;;;13.63;88.129
17950;BME280;9100;48.700;9.316;2023-03-19T00:11:53;97477.70000000001;;;13.64;88.238
17950;BME280;9100;48.700;9.316;2023-03-19T00:12:53;97470.6;;;13.59;88.378
17950;BME280;9100;48.700;9.316;2023-03-19T00:13:24;97451.3;;;13.43;88.422
17950;BME280;9100;48.700;9.316;2023-03-19T00:13:54;97478.5;;;13.57;88.58
17950;BME280;9100;48.700;9.316;2023-03-19T00:14:53;97477.4;;;13.53;88.604
17950;BME280;9100;48.700;9.316;2023-03-19T00:15:53;97478.09999999999;;;13.47;88.667
17950;BME280;9100;48.700;9.316;2023-03-19T00:16:53;97474.59999999999;;;13.42;88.964
17950;BME280;9100;48.700;9.316;2023-03-19T00:17:53;97474.40000000001;;;13.37;89.309
17950;BME280;9100;48.700;9.316;2023-03-19T00:18:24;97480.7;;;13.34;89.484
17950;BME280;9100;48.700;9.316;2023-03-19T00:18:54;97474.59999999999;;;13.35;89.732
17950;BME280;9100;48.700;9.316;2023-03-19T00:19:53;97472.5;;;13.32;89.962
17950;BME280;9100;48.700;9.316;2023-03-19T00:20:54;97476;;;13.31;90.408
17950;BME280;9100;48.700;9.316;2023-03-19T00:21:54;97476.2;;;13.3;90.748
17950;BME280;9100;48.700;9.316;2023-03-19T00:22:54;97419.5;;;12.92;91.161
17950;BME280;9100;48.700;9.316;2023-03-19T00:23:24;97479;;;13.28;91.324
17950;BME280;9100;48.700;9.316;2023-03-19T00:23:54;97486.7;;;13.28;91.474
17950;BME280;9100;48.700;9.316;2023-03-19T00:24:54;97475.8;;;13.26;91.887
17950;BME280;9100;48.700;9.316;2023-03-19T00:25:53;97477.8;;;13.24;92.021
17950;BME280;9100;48.700;9.316;2023-03-19T00:26:54;97471.1;;;13.23;92.028
17950;BME280;9100;48.700;9.316;2023-03-19T00:27:53;97475.59999999999;;;13.21;92.185
17950;BME280;9100;48.700;9.316;2023-03-19T00:28:24;97481.8;;;13.2;92.204
17950;BME280;9100;48.700;9.316;2023-03-19T00:28:53;97476.4;;;13.22;92.283
17950;BME280;9100;48.700;9.316;2023-03-19T00:29:53;97476.59999999999;;;13.2;92.675
17950;BME280;9100;48.700;9.316;2023-03-19T00:30:53;97479.8;;;13.22;92.486
17950;BME280;9100;48.700;9.316;2023-03-19T00:31:54;97484.90000000001;;;13.22;92.851
17950;BME280;9100;48.700;9.316;2023-03-19T00:32:54;97474.59999999999;;;13.22;93.599
17950;BME280;9100;48.700;9.316;2023-03-19T00:33:24;97469.5;;;13.22;93.749
17950;BME280;9100;48.700;9.316;2023-03-19T00:33:55;97478;;;13.23;93.888
17950;BME280;9100;48.700;9.316;2023-03-19T00:34:53;97472.7;;;13.24;93.895
17950;BME280;9100;48.700;9.316;2023-03-19T00:35:53;97419.4;;;12.87;93.652
17950;BME280;9100;48.700;9.316;2023-03-19T00:36:53;97485.29999999999;;;13.26;93.65
17950;BME280;9100;48.700;9.316;2023-03-19T00:37:53;97482.5;;;13.27;93.866
17950;BME280;9100;48.700;9.316;2023-03-19T00:38:24;97482.5;;;13.27;93.76
17950;BME280;9100;48.700;9.316;2023-03-19T00:38:53;97484.1;;;13.28;93.753
17950;BME280;9100;48.700;9.316;2023-03-19T00:39:54;97481.5;;;13.28;93.688
17950;BME280;9100;48.700;9.316;2023-03-19T00:40:54;97480.2;;;13.26;93.575
17950;BME280;9100;48.700;9.316;2023-03-19T00:41:53;97486.5;;;13.23;93.826
17950;BME280;9100;48.700;9.316;2023-03-19T00:42:53;97486.90000000001;;;13.2;94.098
17950;BME280;9100;48.700;9.316;2023-03-19T00:43:24;97483.5;;;13.2;94.29
17950;BME280;9100;48.700;9.316;2023-03-19T00:43:54;97490.4;;;13.19;94.48
17950;BME280;9100;48.700;9.316;2023-03-19T00:44:54;97484.7;;;13.17;94.626
17950;BME280;9100;48.700;9.316;2023-03-19T00:45:53;97452.70000000001;;;12.93;94.776
17950;BME280;9100;48.700;9.316;2023-03-19T00:46:53;97490.4;;;13.19;94.983
17950;BME280;9100;48.700;9.316;2023-03-19T00:47:54;97487.90000000001;;;13.19;95.443
17950;BME280;9100;48.700;9.316;2023-03-19T00:48:24;97490.4;;;13.19;95.604
17950;BME280;9100;48.700;9.316;2023-03-19T00:48:53;97488.7;;;13.2;95.574
17950;BME280;9100;48.700;9.316;2023-03-19T00:49:54;97486.90000000001;;;13.14;95.411
17950;BME280;9100;48.700;9.316;2023-03-19T00:50:53;97492.4;;;13.17;95.407
17950;BME280;9100;48.700;9.316;2023-03-19T00:51:53;97494.2;;;13.17;95.662
17950;BME280;9100;48.700;9.316;2023-03-19T00:52:54;97490.8;;;13.16;95.694
17950;BME280;9100;48.700;9.316;2023-03-19T00:53:24;97484.1;;;13.15;95.927
17950;BME280;9100;48.700;9.316;2023-03-19T00:53:53;97488.5;;;13.15;96.021
17950;BME280;9100;48.700;9.316;2023-03-19T00:54:54;97487.90000000001;;;13.13;96.156
17950;BME280;9100;48.700;9.316;2023-03-19T00:55:54;97466.09999999999;;;12.95;96.449
17950;BME280;9100;48.700;9.316;2023-03-19T00:56:53;97494.5;;;13.07;96.755
17950;BME280;9100;48.700;9.316;2023-03-19T00:57:54;97488.2;;;13.03;96.949
17950;BME280;9100;48.700;9.316;2023-03-19T00:58:24;97492.8;;;13.01;97.296
17950;BME280;9100;48.700;9.316;2023-03-19T00:58:55;97483.7;;;12.98;97.569
17950;BME280;9100;48.700;9.316;2023-03-19T00:59:53;97492.6;;;12.96;97.819
17950;BME280;9100;48.700;9.316;2023-03-19T01:00:53;97492.2;;;12.92;98.048
17950;BME280;9100;48.700;9.316;2023-03-19T01:01:53;97489.20000000001;;;12.89;98.231
17950;BME280;9100;48.700;9.316;2023-03-19T01:02:53;97494.8;;;12.86;98.674
17950;BME280;9100;48.700;9.316;2023-03-19T01:03:24;97488;;;12.85;98.929
17950;BME280;9100;48.700;9.316;2023-03-19T01:03:53;97491.6;;;12.84;99.258
17950;BME280;9100;48.700;9.316;2023-03-19T01:04:53;97481.3;;;12.84;99.515
17950;BME280;9100;48.700;9.316;2023-03-19T01:05:54;97489;;;12.84;99.504
17950;BME280;9100;48.700;9.316;2023-03-19T01:06:53;97491.4;;;12.79;99.501
17950;BME280;9100;48.700;9.316;2023-03-19T01:07:54;97488.4;;;12.75;99.836
17950;BME280;9100;48.700;9.316;2023-03-19T01:08:24;97492.8;;;12.75;99.973
17950;BME280;9100;48.700;9.316;2023-03-19T01:08:53;97497.1;;;12.74;100
17950;BME280;9100;48.700;9.316;2023-03-19T01:09:53;97490.8;;;12.7;100
17950;BME280;9100;48.700;9.316;2023-03-19T01:10:54;97497.1;;;12.68;100
17950;BME280;9100;48.700;9.316;2023-03-19T01:11:54;97492.4;;;12.64;100
17950;BME280;9100;48.700;9.316;2023-03-19T01:12:53;97492.8;;;12.61;100
17950;BME280;9100;48.700;9.316;2023-03-19T01:13:24;97489.59999999999;;;12.59;100
17950;BME280;9100;48.700;9.316;2023-03-19T01:13:53;97493.9;;;12.59;100
17950;BME280;9100;48.700;9.316;2023-03-19T01:14:53;97492.5;;;12.56;100
17950;BME280;9100;48.700;9.316;2023-03-19T01:15:53;97497.29999999999;;;12.59;100
17950;BME280;9100;48.700;9.316;2023-03-19T01:16:54;97501.4;;;12.6;100
17950;BME280;9100;48.700;9.316;2023-03-19T01:17:53;97501.4;;;12.6;100
17950;BME280;9100;48.700;9.316;2023-03-19T01:18:24;97483.7;;;12.52;100
17950;BME280;9100;48.700;9.316;2023-03-19T01:18:53;97505.4;;;12.63;100
17950;BME280;9100;48.700;9.316;2023-03-19T01:19:53;97507.1;;;12.62;100
17950;BME280;9100;48.700;9.316;2023-03-19T01:20:54;97507.8;;;12.64;100
17950;BME280;9100;48.700;9.316;2023-03-19T01:21:53;97517;;;12.65;100
17950;BME280;9100;48.700;9.316;2023-03-19T01:22:54;97509.3;;;12.65;100
17950;BME280;9100;48.700;9.316;2023-03-19T01:23:24;97509.5;;;12.64;100
17950;BME280;9100;48.700;9.316;2023-03-19T01:23:53;97507.8;;;12.64;100
17950;BME280;9100;48.700;9.316;2023-03-19T01:24:53;97512.90000000001;;;12.64;100
17950;BME280;9100;48.700;9.316;2023-03-19T01:25:54;97507.8;;;12.64;100
17950;BME280;9100;48.700;9.316;2023-03-19T01:26:54;97507.8;;;12.64;100
17950;BME280;9100;48.700;9.316;2023-03-19T01:27:53;97508.2;;;12.61;100
17950;BME280;9100;48.700;9.316;2023-03-19T01:28:24;97512.3;;;12.62;100
17950;BME280;9100;48.700;9.316;2023-03-19T01:28:54;97504.8;;;12.61;100
17950;BME280;9100;48.700;9.316;2023-03-19T01:29:53;97512.5;;;12.61;100
17950;BME280;9100;48.700;9.316;2023-03-19T01:30:57;97521.2;;;12.6;100
17950;BME280;9100;48.700;9.316;2023-03-19T01:31:53;97512.7;;;12.59;100
17950;BME280;9100;48.700;9.316;2023-03-19T01:32:53;97519.4;;;12.6;100
17950;BME280;9100;48.700;9.316;2023-03-19T01:33:25;97522.90000000001;;;12.59;100
17950;BME280;9100;48.700;9.316;2023-03-19T01:33:54;97520.2;;;12.61;100
17950;BME280;9100;48.700;9.316;2023-03-19T01:34:53;97519.2;;;12.62;100
17950;BME280;9100;48.700;9.316;2023-03-19T01:35:53;97519;;;12.63;100
17950;BME280;9100;48.700;9.316;2023-03-19T01:36:54;97518.8;;;12.65;100
17950;BME280;9100;48.700;9.316;2023-03-19T01:37:53;97523.1;;;12.64;100
17950;BME280;9100;48.700;9.316;2023-03-19T01:38:24;97523.1;;;12.64;100
17950;BME280;9100;48.700;9.316;2023-03-19T01:38:54;97523.90000000001;;;12.65;100
17950;BME280;9100;48.700;9.316;2023-03-19T01:39:53;97520.4;;;12.66;100
17950;BME280;9100;48.700;9.316;2023-03-19T01:40:53;97529.8;;;12.65;100
17950;BME280;9100;48.700;9.316;2023-03-19T01:41:53;97531.8;;;12.63;100
17950;BME280;9100;48.700;9.316;2023-03-19T01:42:54;97535;;;12.59;99.617
17950;BME280;9100;48.700;9.316;2023-03-19T01:43:25;97545.4;;;12.57;99.272
17950;BME280;9100;48.700;9.316;2023-03-19T01:43:53;97538.09999999999;;;12.54;98.943
17950;BME280;9100;48.700;9.316;2023-03-19T01:44:54;97537.7;;;12.51;98.51
17950;BME280;9100;48.700;9.316;2023-03-19T01:45:54;97543.6;;;12.51;98.479
17950;BME280;9100;48.700;9.316;2023-03-19T01:46:54;97538.9;;;12.48;98.354
17950;BME280;9100;48.700;9.316;2023-03-19T01:47:54;97543.4;;;12.46;98.21
17950;BME280;9100;48.700;9.316;2023-03-19T01:48:25;97539.3;;;12.45;98.379
17950;BME280;9100;48.700;9.316;2023-03-19T01:48:54;97542.6;;;12.46;98.485
17950;BME280;9100;48.700;9.316;2023-03-19T01:49:54;97540.9;;;12.46;98.125
17950;BME280;9100;48.700;9.316;2023-03-19T01:50:53;97545.4;;;12.44;98.249
17950;BME280;9100;48.700;9.316;2023-03-19T01:51:54;97537.7;;;12.44;98.569
17950;BME280;9100;48.700;9.316;2023-03-19T01:52:53;97540.3;;;12.44;98.975
17950;BME280;9100;48.700;9.316;2023-03-19T01:53:25;97537.7;;;12.44;99.199
17950;BME280;9100;48.700;9.316;2023-03-19T01:53:54;97539.3;;;12.45;99.426
17950;BME280;9100;48.700;9.316;2023-03-19T01:54:53;97540.9;;;12.46;99.694
17950;BME280;9100;48.700;9.316;2023-03-19T01:55:54;97535.7;;;12.46;100
17950;BME280;9100;48.700;9.316;2023-03-19T01:56:54;97532.8;;;12.43;100
17950;BME280;9100;48.700;9.316;2023-03-19T01:57:54;97538.9;;;12.48;100
17950;BME280;9100;48.700;9.316;2023-03-19T01:58:24;97536.5;;;12.47;100
17950;BME280;9100;48.700;9.316;2023-03-19T01:58:55;97540.5;;;12.49;100
17950;BME280;9100;48.700;9.316;2023-03-19T01:59:55;97541.8;;;12.52;99.868
17950;BME280;9100;48.700;9.316;2023-03-19T02:00:54;97536.5;;;12.53;99.798
17950;BME280;9100;48.700;9.316;2023-03-19T02:01:55;97541.3;;;12.56;99.738
17950;BME280;9100;48.700;9.316;2023-03-19T02:02:54;97541.3;;;12.56;99.514
17950;BME280;9100;48.700;9.316;2023-03-19T02:03:24;97542.1;;;12.57;99.452
17950;BME280;9100;48.700;9.316;2023-03-19T02:03:53;97529.8;;;12.52;99.377
17950;BME280;9100;48.700;9.316;2023-03-19T02:04:55;97537.7;;;12.57;99.38
17950;BME280;9100;48.700;9.316;2023-03-19T02:05:53;97543.5;;;12.59;99.598
17950;BME280;9100;48.700;9.316;2023-03-19T02:06:54;97542.7;;;12.59;99.724
17950;BME280;9100;48.700;9.316;2023-03-19T02:07:55;97545.2;;;12.59;99.574
17950;BME280;9100;48.700;9.316;2023-03-19T02:08:24;97545.2;;;12.59;99.51
17950;BME280;9100;48.700;9.316;2023-03-19T02:08:53;97549.5;;;12.58;99.391
17950;BME280;9100;48.700;9.316;2023-03-19T02:09:53;97547.6;;;12.6;99.269
17950;BME280;9100;48.700;9.316;2023-03-19T02:10:53;97534;;;12.6;99.234
17950;BME280;9100;48.700;9.316;2023-03-19T02:11:54;97530.6;;;12.59;99.139
17950;BME280;9100;48.700;9.316;2023-03-19T02:12:53;97537.3;;;12.6;99.269
17950;BME280;9100;48.700;9.316;2023-03-19T02:13:24;97538.09999999999;;;12.61;99.407
17950;BME280;9100;48.700;9.316;2023-03-19T02:13:53;97533.8;;;12.61;99.645
17950;BME280;9100;48.700;9.316;2023-03-19T02:14:54;97540.5;;;12.62;99.754
17950;BME280;9100;48.700;9.316;2023-03-19T02:15:54;97533.8;;;12.61;100
17950;BME280;9100;48.700;9.316;2023-03-19T02:16:54;97534.6;;;12.62;99.794
17950;BME280;9100;48.700;9.316;2023-03-19T02:17:53;97545.6;;;12.62;98.237
17950;BME280;9100;48.700;9.316;2023-03-19T02:18:24;97546.6;;;12.61;97.637
17950;BME280;9100;48.700;9.316;2023-03-19T02:18:54;97540.5;;;12.62;97.158
17950;BME280;9100;48.700;9.316;2023-03-19T02:19:54;97545.6;;;12.62;97.072
17950;BME280;9100;48.700;9.316;2023-03-19T02:20:55;97552.3;;;12.63;96.572
17950;BME280;9100;48.700;9.316;2023-03-19T02:21:54;97482.4;;;12.22;95.828
17950;BME280;9100;48.700;9.316;2023-03-19T02:22:57;97546.2;;;12.64;95.421
17950;BME280;9100;48.700;9.316;2023-03-19T02:23:25;97546;;;12.66;95.134
17950;BME280;9100;48.700;9.316;2023-03-19T02:23:54;97540.09999999999;;;12.65;94.878
17950;BME280;9100;48.700;9.316;2023-03-19T02:24:55;97548.40000000001;;;12.68;94.583
17950;BME280;9100;48.700;9.316;2023-03-19T02:26:09;97544.9;;;12.69;94.51
17950;BME280;9100;48.700;9.316;2023-03-19T02:26:54;97538.7;;;12.7;94.929
17950;BME280;9100;48.700;9.316;2023-03-19T02:27:53;97543.7;;;12.71;95.146
17950;BME280;9100;48.700;9.316;2023-03-19T02:28:24;97543.7;;;12.71;95.339
17950;BME280;9100;48.700;9.316;2023-03-19T02:28:53;97540.9;;;12.73;95.373
17950;BME280;9100;48.700;9.316;2023-03-19T02:29:53;97529.7;;;12.74;95.184
17950;BME280;9100;48.700;9.316;2023-03-19T02:30:54;97548.8;;;12.78;95.01
17950;BME280;9100;48.700;9.316;2023-03-19T02:31:53;97546.3;;;12.78;94.529
17950;BME280;9100;48.700;9.316;2023-03-19T02:32:53;97549.59999999999;;;12.78;94.008
17950;BME280;9100;48.700;9.316;2023-03-19T02:33:24;97548.8;;;12.78;93.92
17950;BME280;9100;48.700;9.316;2023-03-19T02:33:55;97551.4;;;12.78;93.792
17950;BME280;9100;48.700;9.316;2023-03-19T02:34:53;97546.3;;;12.78;93.931
17950;BME280;9100;48.700;9.316;2023-03-19T02:35:54;97557.5;;;12.77;93.929
17950;BME280;9100;48.700;9.316;2023-03-19T02:36:54;97558.5;;;12.76;94.301
17950;BME280;9100;48.700;9.316;2023-03-19T02:37:53;97556.9;;;12.75;94.844
17950;BME280;9100;48.700;9.316;2023-03-19T02:38:25;97554.3;;;12.75;94.833
17950;BME280;9100;48.700;9.316;2023-03-19T02:38:53;97555.1;;;12.75;94.386
17950;BME280;9100;48.700;9.316;2023-03-19T02:39:54;97554.9;;;12.77;94.409
17950;BME280;9100;48.700;9.316;2023-03-19T02:40:56;97553.9;;;12.78;95.641
17950;BME280;9100;48.700;9.316;2023-03-19T02:41:54;97554.7;;;12.78;97.117
17950;BME280;9100;48.700;9.316;2023-03-19T02:42:53;97557.9;;;12.8;98.8
17950;BME280;9100;48.700;9.316;2023-03-19T02:43:24;97555.5;;;12.79;99.661
17950;BME280;9100;48.700;9.316;2023-03-19T02:43:54;97556.1;;;12.81;100
17950;BME280;9100;48.700;9.316;2023-03-19T02:44:54;97561.90000000001;;;12.83;100
17950;BME280;9100;48.700;9.316;2023-03-19T02:45:54;97556.9;;;12.81;100
17950;BME280;9100;48.700;9.316;2023-03-19T02:46:54;97563.8;;;12.81;100
17950;BME280;9100;48.700;9.316;2023-03-19T02:47:54;97542.1;;;12.7;100
17950;BME280;9100;48.700;9.316;2023-03-19T02:48:24;97555.9;;;12.76;100
17950;BME280;9100;48.700;9.316;2023-03-19T02:48:54;97552.59999999999;;;12.75;100
17950;BME280;9100;48.700;9.316;2023-03-19T02:49:54;97554.3;;;12.75;100
17950;BME280;9100;48.700;9.316;2023-03-19T02:50:54;97562.2;;;12.73;100
17950;BME280;9100;48.700;9.316;2023-03-19T02:51:54;97558.90000000001;;;12.73;100
17950;BME280;9100;48.700;9.316;2023-03-19T02:52:53;97559.90000000001;;;12.72;100
17950;BME280;9100;48.700;9.316;2023-03-19T02:53:24;97561.6;;;12.71;100
17950;BME280;9100;48.700;9.316;2023-03-19T02:53:54;97560.7;;;12.72;100
17950;BME280;9100;48.700;9.316;2023-03-19T02:54:54;97559.90000000001;;;12.72;100
17950;BME280;9100;48.700;9.316;2023-03-19T02:55:53;97559.90000000001;;;12.72;100
17950;BME280;9100;48.700;9.316;2023-03-19T02:56:53;97557.5;;;12.7;100
17950;BME280;9100;48.700;9.316;2023-03-19T02:57:54;97565;;;12.72;100
17950;BME280;9100;48.700;9.316;2023-03-19T02:58:24;97558.3;;;12.71;100
17950;BME280;9100;48.700;9.316;2023-03-19T02:58:54;97561.6;;;12.71;100
17950;BME280;9100;48.700;9.316;2023-03-19T02:59:53;97562.40000000001;;;12.72;100
17950;BME280;9100;48.700;9.316;2023-03-19T03:00:53;97566.6;;;12.73;100
17950;BME280;9100;48.700;9.316;2023-03-19T03:01:54;97563.4;;;12.71;100
17950;BME280;9100;48.700;9.316;2023-03-19T03:02:54;97568.9;;;12.68;100
17950;BME280;9100;48.700;9.316;2023-03-19T03:03:24;97569.3;;;12.64;100
17950;BME280;9100;48.700;9.316;2023-03-19T03:03:53;97575.40000000001;;;12.63;100
17950;BME280;9100;48.700;9.316;2023-03-19T03:04:53;97571.7;;;12.59;100
17950;BME280;9100;48.700;9.316;2023-03-19T03:05:53;97573.6;;;12.57;100
17950;BME280;9100;48.700;9.316;2023-03-19T03:06:53;97570.1;;;12.52;100
17950;BME280;9100;48.700;9.316;2023-03-19T03:07:54;97569.1;;;12.46;100
17950;BME280;9100;48.700;9.316;2023-03-19T03:08:24;97577.09999999999;;;12.43;100
17950;BME280;9100;48.700;9.316;2023-03-19T03:08:54;97438.9;;;11.53;100
17950;BME280;9100;48.700;9.316;2023-03-19T03:09:53;97569.4;;;12.37;100
17950;BME280;9100;48.700;9.316;2023-03-19T03:10:53;97576.09999999999;;;12.31;100
17950;BME280;9100;48.700;9.316;2023-03-19T03:11:54;97574.7;;;12.22;100
17950;BME280;9100;48.700;9.316;2023-03-19T03:12:54;97567.9;;;12.14;100
17950;BME280;9100;48.700;9.316;2023-03-19T03:13:24;97564;;;12.12;100
17950;BME280;9100;48.700;9.316;2023-03-19T03:13:53;97566.6;;;12.12;100
17950;BME280;9100;48.700;9.316;2023-03-19T03:14:53;97570.3;;;12.09;100
17950;BME280;9100;48.700;9.316;2023-03-19T03:15:53;97574.59999999999;;;12.09;100
17950;BME280;9100;48.700;9.316;2023-03-19T03:16:54;97567.1;;;12.07;100
17950;BME280;9100;48.700;9.316;2023-03-19T03:17:53;97561.40000000001;;;12.05;100
17950;BME280;9100;48.700;9.316;2023-03-19T03:18:24;97566.7;;;12.04;100
17950;BME280;9100;48.700;9.316;2023-03-19T03:18:53;97564.09999999999;;;12.04;100
17950;BME280;9100;48.700;9.316;2023-03-19T03:19:53;97559.2;;;12.02;100
17950;BME280;9100;48.700;9.316;2023-03-19T03:20:54;97559.6;;;11.99;100
17950;BME280;9100;48.700;9.316;2023-03-19T03:21:54;97563.5;;;11.95;100
17950;BME280;9100;48.700;9.316;2023-03-19T03:22:53;97563.09999999999;;;11.92;100
17950;BME280;9100;48.700;9.316;2023-03-19T03:23:24;97565.09999999999;;;11.9;100
17950;BME280;9100;48.700;9.316;2023-03-19T03:23:53;97560.90000000001;;;11.89;100
17950;BME280;9100;48.700;9.316;2023-03-19T03:24:54;97562.90000000001;;;11.87;100
17950;BME280;9100;48.700;9.316;2023-03-19T03:25:53;97566.6;;;11.84;100
17950;BME280;9100;48.700;9.316;2023-03-19T03:26:53;97562.5;;;11.83;100
17950;BME280;9100;48.700;9.316;2023-03-19T03:27:54;97563.2;;;11.84;100
17950;BME280;9100;48.700;9.316;2023-03-19T03:28:24;97559.90000000001;;;11.83;100
17950;BME280;9100;48.700;9.316;2023-03-19T03:28:54;97567.4;;;11.85;100
17950;BME280;9100;48.700;9.316;2023-03-19T03:29:53;97562.3;;;11.85;100
17950;BME280;9100;48.700;9.316;2023-03-19T03:30:56;97564;;;11.84;100
17950;BME280;9100;48.700;9.316;2023-03-19T03:31:54;97561.5;;;11.84;100
17950;BME280;9100;48.700;9.316;2023-03-19T03:32:54;97564.20000000001;;;11.83;100
17950;BME280;9100;48.700;9.316;2023-03-19T03:33:24;97565.4;;;11.8;100
17950;BME280;9100;48.700;9.316;2023-03-19T03:33:53;97569.7;;;11.8;100
17950;BME280;9100;48.700;9.316;2023-03-19T03:34:53;97568.1;;;11.79;100
17950;BME280;9100;48.700;9.316;2023-03-19T03:35:54;97575.2;;;11.77;100
17950;BME280;9100;48.700;9.316;2023-03-19T03:36:53;97573.7;;;11.76;100
17950;BME280;9100;48.700;9.316;2023-03-19T03:37:54;97577.20000000001;;;11.75;100
17950;BME280;9100;48.700;9.316;2023-03-19T03:38:24;97574.59999999999;;;11.75;100
17950;BME280;9100;48.700;9.316;2023-03-19T03:38:54;97578.8;;;11.76;100
17950;BME280;9100;48.700;9.316;2023-03-19T03:39:54;97574.59999999999;;;11.75;100
17950;BME280;9100;48.700;9.316;2023-03-19T03:40:53;97572.90000000001;;;11.75;100
17950;BME280;9100;48.700;9.316;2023-03-19T03:41:54;97573;;;11.74;100
17950;BME280;9100;48.700;9.316;2023-03-19T03:42:53;97572.90000000001;;;11.75;100
17950;BME280;9100;48.700;9.316;2023-03-19T03:43:24;97578.8;;;11.76;100
17950;BME280;9100;48.700;9.316;2023-03-19T03:43:53;97581.1;;;11.77;100
17950;BME280;9100;48.700;9.316;2023-03-19T03:44:53;97578.8;;;11.76;100
17950;BME280;9100;48.700;9.316;2023-03-19T03:45:55;97564.4;;;11.75;100
17950;BME280;9100;48.700;9.316;2023-03-19T03:46:53;97565.5;;;11.72;100
17950;BME280;9100;48.700;9.316;2023-03-19T03:47:54;97559;;;11.69;100
17950;BME280;9100;48.700;9.316;2023-03-19T03:48:24;97561.7;;;11.68;100
17950;BME280;9100;48.700;9.316;2023-03-19T03:48:53;97557.8;;;11.65;100
17950;BME280;9100;48.700;9.316;2023-03-19T03:49:54;97562.5;;;11.62;100
17950;BME280;9100;48.700;9.316;2023-03-19T03:50:54;97558.5;;;11.59;100
17950;BME280;9100;48.700;9.316;2023-03-19T03:51:53;97556.5;;;11.55;100
17950;BME280;9100;48.700;9.316;2023-03-19T03:52:53;97557.9;;;11.51;100
17950;BME280;9100;48.700;9.316;2023-03-19T03:53:24;97555.9;;;11.46;100
17950;BME280;9100;48.700;9.316;2023-03-19T03:53:54;97558.6;;;11.45;100
17950;BME280;9100;48.700;9.316;2023-03-19T03:54:53;97555;;;11.39;100
17950;BME280;9100;48.700;9.316;2023-03-19T03:55:53;97564;;;11.35;100
17950;BME280;9100;48.700;9.316;2023-03-19T03:56:53;97560.7;;;11.28;100
17950;BME280;9100;48.700;9.316;2023-03-19T03:57:53;97557.7;;;11.25;100
17950;BME280;9100;48.700;9.316;2023-03-19T03:58:24;97565.09999999999;;;11.19;100
17950;BME280;9100;48.700;9.316;2023-03-19T03:58:54;97563.7;;;11.17;100
17950;BME280;9100;48.700;9.316;2023-03-19T03:59:54;97560.90000000001;;;11.12;100
17950;BME280;9100;48.700;9.316;2023-03-19T04:00:53;97566.4;;;11.09;100
17950;BME280;9100;48.700;9.316;2023-03-19T04:01:53;97570.9;;;11.07;100
17950;BME280;9100;48.700;9.316;2023-03-19T04:02:54;97573.8;;;11.04;100
17950;BME280;9100;48.700;9.316;2023-03-19T04:03:24;97569.7;;;11.03;100
17950;BME280;9100;48.700;9.316;2023-03-19T04:03:54;97567.1;;;11.03;100
17950;BME280;9100;48.700;9.316;2023-03-19T04:04:53;97569.7;;;11.03;100
17950;BME280;9100;48.700;9.316;2023-03-19T04:05:54;97573.8;;;11.04;100
17950;BME280;9100;48.700;9.316;2023-03-19T04:06:54;97576.2;;;11.05;100
17950;BME280;9100;48.700;9.316;2023-03-19T04:07:53;97581.1;;;11.07;100
17950;BME280;9100;48.700;9.316;2023-03-19T04:08:24;97573.5;;;11.07;100
17950;BME280;9100;48.700;9.316;2023-03-19T04:08:53;97575.09999999999;;;11.08;100
17950;BME280;9100;48.700;9.316;2023-03-19T04:09:55;97569.9;;;11.08;100
17950;BME280;9100;48.700;9.316;2023-03-19T04:10:54;97573.5;;;11.07;100
17950;BME280;9100;48.700;9.316;2023-03-19T04:11:54;97583.5;;;11.08;100
17950;BME280;9100;48.700;9.316;2023-03-19T04:12:53;97571.90000000001;;;11.06;100
17950;BME280;9100;48.700;9.316;2023-03-19T04:13:24;97576.2;;;11.05;100
17950;BME280;9100;48.700;9.316;2023-03-19T04:13:53;97583.1;;;11.05;100
17950;BME280;9100;48.700;9.316;2023-03-19T04:14:54;97579;;;11.04;100
17950;BME280;9100;48.700;9.316;2023-03-19T04:15:53;97577.4;;;11.03;100
17950;BME280;9100;48.700;9.316;2023-03-19T04:16:54;97579.1;;;11.02;100
17950;BME280;9100;48.700;9.316;2023-03-19T04:17:54;97585.2;;;11.01;100
17950;BME280;9100;48.700;9.316;2023-03-19T04:18:24;97582.1;;;10.99;100
17950;BME280;9100;48.700;9.316;2023-03-19T04:18:54;97588.9;;;10.99;100
17950;BME280;9100;48.700;9.316;2023-03-19T04:19:53;97584;;;10.97;100
17950;BME280;9100;48.700;9.316;2023-03-19T04:20:54;97586.7;;;10.96;100
17950;BME280;9100;48.700;9.316;2023-03-19T04:21:54;97580;;;10.95;100
17950;BME280;9100;48.700;9.316;2023-03-19T04:22:54;97582;;;10.93;100
17950;BME280;9100;48.700;9.316;2023-03-19T04:23:25;97589;;;10.91;100
17950;BME280;9100;48.700;9.316;2023-03-19T04:23:54;97578;;;10.9;100
17950;BME280;9100;48.700;9.316;2023-03-19T04:24:53;97581.6;;;10.89;100
17950;BME280;9100;48.700;9.316;2023-03-19T04:25:56;97586.7;;;10.89;100
17950;BME280;9100;48.700;9.316;2023-03-19T04:26:54;97579.1;;;10.81;100
17950;BME280;9100;48.700;9.316;2023-03-19T04:27:55;97581.6;;;10.89;100
17950;BME280;9100;48.700;9.316;2023-03-19T04:28:24;97595.3;;;10.88;100